createdAt,value
2019-02-11T00:00:37.200Z,1.00
2019-02-11T00:03:05.531Z,0.90
2019-02-11T00:05:33.805Z,0.90
2019-02-11T00:08:02.066Z,0.90
2019-02-11T00:10:30.346Z,1.00
2019-02-11T00:12:58.609Z,1.00
2019-02-11T00:15:26.877Z,0.90
2019-02-11T00:17:55.161Z,0.90
2019-02-11T00:20:23.436Z,0.90
2019-02-11T00:22:51.680Z,0.90
2019-02-11T00:25:20.006Z,0.90
2019-02-11T00:27:48.275Z,0.90
2019-02-11T00:30:16.621Z,0.90
2019-02-11T00:32:44.925Z,0.90
2019-02-11T00:35:13.257Z,0.90
2019-02-11T00:37:41.527Z,0.90
2019-02-11T00:40:09.815Z,0.90
2019-02-11T00:42:38.103Z,0.90
2019-02-11T00:45:07.912Z,0.90
2019-02-11T00:47:36.199Z,0.90
2019-02-11T00:50:07.374Z,0.90
2019-02-11T00:52:35.660Z,0.90
2019-02-11T00:55:04.651Z,0.90
2019-02-11T00:57:33.017Z,0.90
2019-02-11T01:00:01.284Z,0.90
2019-02-11T01:02:29.620Z,0.90
2019-02-11T01:04:57.873Z,0.90
2019-02-11T01:07:26.150Z,0.90
2019-02-11T01:09:54.420Z,0.90
2019-02-11T01:12:22.710Z,0.90
2019-02-11T01:14:50.981Z,1.00
2019-02-11T01:17:19.271Z,1.00
2019-02-11T01:19:47.530Z,1.00
2019-02-11T01:22:15.821Z,1.00
2019-02-11T01:24:44.062Z,1.00
2019-02-11T01:27:12.386Z,1.00
2019-02-11T01:29:40.641Z,1.00
2019-02-11T01:32:08.887Z,1.00
2019-02-11T01:34:37.176Z,1.00
2019-02-11T01:37:05.465Z,1.00
2019-02-11T01:39:33.711Z,1.10
2019-02-11T01:42:02.000Z,1.10
2019-02-11T01:44:30.282Z,1.10
2019-02-11T01:46:58.537Z,1.10
2019-02-11T01:49:26.846Z,1.10
2019-02-11T01:51:55.265Z,1.10
2019-02-11T01:54:23.576Z,1.20
2019-02-11T01:56:51.827Z,1.20
2019-02-11T01:59:20.153Z,1.20
2019-02-11T02:01:48.433Z,1.30
2019-02-11T02:04:16.720Z,1.30
2019-02-11T02:06:44.964Z,1.30
2019-02-11T02:09:13.251Z,1.30
2019-02-11T02:11:41.507Z,1.30
2019-02-11T02:14:09.795Z,1.40
2019-02-11T02:16:38.065Z,1.40
2019-02-11T02:19:06.362Z,1.40
2019-02-11T02:21:34.667Z,1.50
2019-02-11T02:24:02.976Z,1.50
2019-02-11T02:26:31.220Z,1.50
2019-02-11T02:28:59.515Z,1.50
2019-02-11T02:31:27.806Z,1.50
2019-02-11T02:33:56.050Z,1.60
2019-02-11T02:36:24.363Z,1.60
2019-02-11T02:38:52.694Z,1.60
2019-02-11T02:41:21.037Z,1.60
2019-02-11T02:43:55.452Z,1.70
2019-02-11T02:46:19.297Z,1.70
2019-02-11T02:48:47.601Z,1.80
2019-02-11T02:51:15.937Z,1.70
2019-02-11T02:53:44.198Z,1.70
2019-02-11T02:56:12.474Z,1.70
2019-02-11T02:58:40.737Z,1.70
2019-02-11T03:01:09.029Z,1.70
2019-02-11T03:03:37.316Z,1.70
2019-02-11T03:06:05.611Z,1.70
2019-02-11T03:08:33.860Z,1.80
2019-02-11T03:11:02.155Z,1.80
2019-02-11T03:13:30.438Z,1.90
2019-02-11T03:15:58.718Z,1.90
2019-02-11T03:18:26.985Z,1.90
2019-02-11T03:20:55.246Z,2.00
2019-02-11T03:23:23.531Z,2.00
2019-02-11T03:25:51.790Z,2.00
2019-02-11T03:28:20.076Z,2.10
2019-02-11T03:30:48.433Z,2.10
2019-02-11T03:33:16.786Z,2.10
2019-02-11T03:35:45.054Z,2.10
2019-02-11T03:38:13.334Z,2.20
2019-02-11T03:40:41.600Z,2.20
2019-02-11T03:43:09.885Z,2.20
2019-02-11T03:45:38.146Z,2.20
2019-02-11T03:48:06.430Z,2.20
2019-02-11T03:50:34.710Z,2.30
2019-02-11T03:53:02.985Z,2.30
2019-02-11T03:55:31.234Z,2.30
2019-02-11T03:57:59.509Z,2.40
2019-02-11T04:00:27.771Z,2.40
2019-02-11T04:02:56.060Z,2.40
2019-02-11T04:05:24.325Z,2.50
2019-02-11T04:07:52.687Z,2.50
2019-02-11T04:10:20.945Z,2.50
2019-02-11T04:12:49.291Z,2.50
2019-02-11T04:15:17.573Z,2.40
2019-02-11T04:17:45.845Z,2.50
2019-02-11T04:20:14.117Z,2.50
2019-02-11T04:22:42.370Z,2.50
2019-02-11T04:25:10.636Z,2.50
2019-02-11T04:27:38.890Z,4.00
2019-02-11T04:30:09.198Z,2.50
2019-02-11T04:32:37.477Z,2.60
2019-02-11T04:35:06.193Z,2.60
2019-02-11T04:37:34.459Z,2.60
2019-02-11T04:40:02.902Z,2.60
2019-02-11T04:42:31.215Z,2.60
2019-02-11T04:44:59.490Z,2.60
2019-02-11T04:47:27.745Z,2.60
2019-02-11T04:49:56.044Z,2.60
2019-02-11T04:52:24.307Z,2.60
2019-02-11T04:54:52.590Z,2.60
2019-02-11T04:57:20.905Z,2.60
2019-02-11T04:59:49.209Z,2.70
2019-02-11T05:02:17.489Z,2.60
2019-02-11T05:04:45.861Z,2.60
2019-02-11T05:07:14.106Z,2.60
2019-02-11T05:09:42.357Z,2.60
2019-02-11T05:12:10.651Z,2.60
2019-02-11T05:14:43.752Z,2.60
2019-02-11T05:17:08.927Z,2.60
2019-02-11T05:19:37.246Z,2.70
2019-02-11T05:22:05.529Z,2.60
2019-02-11T05:24:33.797Z,2.60
2019-02-11T05:27:02.075Z,2.60
2019-02-11T05:29:30.338Z,2.70
2019-02-11T05:31:58.622Z,2.70
2019-02-11T05:34:26.881Z,2.70
2019-02-11T05:36:55.157Z,2.70
2019-02-11T05:39:23.412Z,2.60
2019-02-11T05:41:51.710Z,2.60
2019-02-11T05:44:19.972Z,2.60
2019-02-11T05:46:48.258Z,2.60
2019-02-11T05:49:16.521Z,2.60
2019-02-11T05:51:44.853Z,2.60
2019-02-11T05:54:13.113Z,2.60
2019-02-11T05:56:41.441Z,2.60
2019-02-11T05:59:09.724Z,2.60
2019-02-11T06:01:37.989Z,2.60
2019-02-11T06:04:06.281Z,2.60
2019-02-11T06:06:34.537Z,2.60
2019-02-11T06:09:02.886Z,2.60
2019-02-11T06:11:31.182Z,2.60
2019-02-11T06:13:59.451Z,2.60
2019-02-11T06:16:27.721Z,2.60
2019-02-11T06:18:56.013Z,2.50
2019-02-11T06:21:24.267Z,2.50
2019-02-11T06:23:52.551Z,2.60
2019-02-11T06:26:20.809Z,2.60
2019-02-11T06:28:49.142Z,2.60
2019-02-11T06:31:17.391Z,2.50
2019-02-11T06:33:45.982Z,2.60
2019-02-11T06:36:14.390Z,2.50
2019-02-11T06:38:42.756Z,2.50
2019-02-11T06:41:10.997Z,2.60
2019-02-11T06:43:39.286Z,2.60
2019-02-11T06:46:07.547Z,2.60
2019-02-11T06:48:35.845Z,1.60
2019-02-11T06:51:04.196Z,2.60
2019-02-11T06:53:32.462Z,2.60
2019-02-11T06:56:00.730Z,2.60
2019-02-11T06:58:29.156Z,2.60
2019-02-11T07:00:57.450Z,2.70
2019-02-11T07:03:25.705Z,2.70
2019-02-11T07:05:53.986Z,2.70
2019-02-11T07:08:22.238Z,2.70
2019-02-11T07:10:55.650Z,2.70
2019-02-11T07:13:20.725Z,2.70
2019-02-11T07:15:49.076Z,2.80
2019-02-11T07:18:17.413Z,2.80
2019-02-11T07:20:45.736Z,2.80
2019-02-11T07:23:14.045Z,2.80
2019-02-11T07:25:42.336Z,2.80
2019-02-11T07:28:10.593Z,2.70
2019-02-11T07:30:38.871Z,2.70
2019-02-11T07:33:07.210Z,2.70
2019-02-11T07:35:35.506Z,2.70
2019-02-11T07:38:05.318Z,2.70
2019-02-11T07:40:33.631Z,2.70
2019-02-11T07:43:06.555Z,2.70
2019-02-11T07:45:36.543Z,2.60
2019-02-11T07:48:04.830Z,2.60
2019-02-11T07:50:33.146Z,2.60
2019-02-11T07:53:01.410Z,2.60
2019-02-11T07:55:29.700Z,2.50
2019-02-11T07:57:57.987Z,2.50
2019-02-11T08:00:26.240Z,2.50
2019-02-11T08:02:54.523Z,2.50
2019-02-11T08:05:22.789Z,2.50
2019-02-11T08:07:51.093Z,2.50
2019-02-11T08:10:19.369Z,2.60
2019-02-11T08:12:47.657Z,2.60
2019-02-11T08:15:16.000Z,2.60
2019-02-11T08:17:44.372Z,2.60
2019-02-11T08:20:12.670Z,2.60
2019-02-11T08:22:40.965Z,2.60
2019-02-11T08:25:09.222Z,2.70
2019-02-11T08:27:37.511Z,2.80
2019-02-11T08:30:08.610Z,2.80
2019-02-11T08:32:36.911Z,2.80
2019-02-11T08:35:05.967Z,2.90
2019-02-11T08:37:34.337Z,2.90
2019-02-11T08:40:02.872Z,3.00
2019-02-11T08:42:31.166Z,3.00
2019-02-11T08:44:59.438Z,3.10
2019-02-11T08:47:27.687Z,3.10
2019-02-11T08:49:56.126Z,3.10
2019-02-11T08:52:24.391Z,3.30
2019-02-11T08:54:52.681Z,3.30
2019-02-11T08:57:20.942Z,3.30
2019-02-11T08:59:49.430Z,3.40
2019-02-11T09:02:17.756Z,3.40
2019-02-11T09:04:46.032Z,3.40
2019-02-11T09:07:14.291Z,3.30
2019-02-11T09:09:42.581Z,3.30
2019-02-11T09:12:10.865Z,3.30
2019-02-11T09:14:39.156Z,3.20
2019-02-11T09:17:10.318Z,3.20
2019-02-11T09:19:37.498Z,3.30
2019-02-11T09:22:07.707Z,3.30
2019-02-11T09:24:35.787Z,3.20
2019-02-11T09:27:04.057Z,3.30
2019-02-11T09:29:32.336Z,3.20
2019-02-11T09:32:00.598Z,3.20
2019-02-11T09:34:28.874Z,3.20
2019-02-11T09:36:57.142Z,3.20
2019-02-11T09:39:25.477Z,3.20
2019-02-11T09:41:53.791Z,3.20
2019-02-11T09:44:29.451Z,3.20
2019-02-11T09:46:52.335Z,3.20
2019-02-11T09:49:20.613Z,3.20
2019-02-11T09:51:49.045Z,3.20
2019-02-11T09:54:17.304Z,3.30
2019-02-11T09:56:46.251Z,3.30
2019-02-11T09:59:14.590Z,3.30
2019-02-11T10:01:42.927Z,3.30
2019-02-11T10:04:11.191Z,3.30
2019-02-11T10:06:39.486Z,3.30
2019-02-11T10:09:07.846Z,3.30
2019-02-11T10:11:36.171Z,3.40
2019-02-11T10:14:04.443Z,3.50
2019-02-11T10:16:32.744Z,3.50
2019-02-11T10:19:01.084Z,3.50
2019-02-11T10:21:29.377Z,3.50
2019-02-11T10:23:57.646Z,3.50
2019-02-11T10:26:25.957Z,3.40
2019-02-11T10:28:54.347Z,3.40
2019-02-11T10:31:22.627Z,3.40
2019-02-11T10:33:50.879Z,3.40
2019-02-11T10:36:19.245Z,3.30
2019-02-11T10:38:47.596Z,3.30
2019-02-11T10:41:15.942Z,3.30
2019-02-11T10:43:44.195Z,3.20
2019-02-11T10:46:20.661Z,3.20
2019-02-11T10:48:42.650Z,3.20
2019-02-11T10:51:10.930Z,3.20
2019-02-11T10:53:39.222Z,3.20
2019-02-11T10:56:07.487Z,3.20
2019-02-11T10:58:35.766Z,3.20
2019-02-11T11:01:04.112Z,3.20
2019-02-11T11:03:32.405Z,3.10
2019-02-11T11:06:00.670Z,3.10
2019-02-11T11:08:28.955Z,3.10
2019-02-11T11:10:57.227Z,3.20
2019-02-11T11:13:25.617Z,3.20
2019-02-11T11:15:53.950Z,3.30
2019-02-11T11:18:22.257Z,3.30
2019-02-11T11:20:50.575Z,3.30
2019-02-11T11:23:18.861Z,3.30
2019-02-11T11:25:47.266Z,3.30
2019-02-11T11:28:15.576Z,3.40
2019-02-11T11:30:43.913Z,3.30
2019-02-11T11:33:12.205Z,3.40
2019-02-11T11:35:40.516Z,3.30
2019-02-11T11:38:08.821Z,3.10
2019-02-11T11:40:37.069Z,3.00
2019-02-11T11:43:05.345Z,3.10
2019-02-11T11:45:33.672Z,3.10
2019-02-11T11:48:01.926Z,3.10
2019-02-11T11:50:30.205Z,3.00
2019-02-11T11:52:58.479Z,3.10
2019-02-11T11:55:26.770Z,3.10
2019-02-11T11:57:55.185Z,3.10
2019-02-11T12:00:25.915Z,3.20
2019-02-11T12:03:04.003Z,3.30
2019-02-11T12:05:24.308Z,3.30
2019-02-11T12:07:52.660Z,3.40
2019-02-11T12:10:20.968Z,3.40
2019-02-11T12:12:49.311Z,3.50
2019-02-11T12:15:19.896Z,3.60
2019-02-11T12:17:48.230Z,3.60
2019-02-11T12:20:16.794Z,3.80
2019-02-11T12:22:45.231Z,3.90
2019-02-11T12:25:15.494Z,4.00
2019-02-11T12:27:43.757Z,4.10
2019-02-11T12:30:25.958Z,4.10
2019-02-11T12:32:55.704Z,4.10
2019-02-11T12:35:24.220Z,4.00
2019-02-11T12:37:52.512Z,4.00
2019-02-11T12:40:20.782Z,3.90
2019-02-11T12:42:52.375Z,3.90
2019-02-11T12:45:25.873Z,3.80
2019-02-11T12:47:54.326Z,3.70
2019-02-11T12:50:22.608Z,3.70
2019-02-11T12:52:51.046Z,3.80
2019-02-11T12:55:19.438Z,3.80
2019-02-11T12:57:47.739Z,3.70
2019-02-11T13:00:18.648Z,3.80
2019-02-11T13:02:47.225Z,3.70
2019-02-11T13:05:15.702Z,3.70
2019-02-11T13:07:44.109Z,3.70
2019-02-11T13:10:18.390Z,3.70
2019-02-11T13:12:46.841Z,3.60
2019-02-11T13:15:41.442Z,3.60
2019-02-11T13:17:47.546Z,3.50
2019-02-11T13:20:16.967Z,3.30
2019-02-11T13:22:45.353Z,3.10
2019-02-11T13:25:15.743Z,3.00
2019-02-11T13:27:44.092Z,2.90
2019-02-11T13:30:21.588Z,2.80
2019-02-11T13:32:49.979Z,2.80
2019-02-11T13:35:18.320Z,2.90
2019-02-11T13:37:46.733Z,2.90
2019-02-11T13:40:15.036Z,2.90
2019-02-11T13:42:43.380Z,2.80
2019-02-11T13:45:18.797Z,2.80
2019-02-11T13:47:57.597Z,2.80
2019-02-11T13:50:19.276Z,4.00
2019-02-11T13:52:47.766Z,6.00
2019-02-11T13:55:16.214Z,7.40
2019-02-11T13:57:44.593Z,8.50
2019-02-11T14:00:22.953Z,8.40
2019-02-11T14:02:53.437Z,7.50
2019-02-11T14:05:21.832Z,6.30
2019-02-11T14:07:50.181Z,5.50
2019-02-11T14:10:18.549Z,5.00
2019-02-11T14:12:47.319Z,4.60
2019-02-11T14:15:20.082Z,4.30
2019-02-11T14:17:45.659Z,4.20
2019-02-11T14:20:24.194Z,4.20
2019-02-11T14:22:52.511Z,4.20
2019-02-11T14:25:39.215Z,4.10
2019-02-11T14:27:50.891Z,4.00
2019-02-11T14:30:21.559Z,4.90
2019-02-11T14:32:49.891Z,6.80
2019-02-11T14:35:19.209Z,8.70
2019-02-11T14:37:47.451Z,10.00
2019-02-11T14:40:15.759Z,11.00
2019-02-11T14:42:44.089Z,9.90
2019-02-11T14:45:20.113Z,9.50
2019-02-11T14:47:48.450Z,9.80
2019-02-11T14:50:16.833Z,10.40
2019-02-11T14:52:45.140Z,11.30
2019-02-11T14:55:13.486Z,11.60
2019-02-11T14:57:41.851Z,12.60
2019-02-11T15:00:20.533Z,11.30
2019-02-11T15:02:48.891Z,9.70
2019-02-11T15:05:17.788Z,8.50
2019-02-11T15:07:46.219Z,8.60
2019-02-11T15:10:14.813Z,9.50
2019-02-11T15:12:43.183Z,9.30
2019-02-11T15:15:12.280Z,8.60
2019-02-11T15:17:42.122Z,7.70
2019-02-11T15:20:17.133Z,7.00
2019-02-11T15:22:45.470Z,6.40
2019-02-11T15:25:15.550Z,6.00
2019-02-11T15:27:43.830Z,5.60
2019-02-11T15:30:14.236Z,5.30
2019-02-11T15:32:42.507Z,5.10
2019-02-11T15:35:10.784Z,4.90
2019-02-11T15:37:39.079Z,4.60
2019-02-11T15:40:12.454Z,4.50
2019-02-11T15:42:40.783Z,4.30
2019-02-11T15:45:13.825Z,4.20
2019-02-11T15:47:42.154Z,4.10
2019-02-11T15:50:13.785Z,4.10
2019-02-11T15:52:42.114Z,4.00
2019-02-11T15:55:15.667Z,3.90
2019-02-11T15:57:43.995Z,3.80
2019-02-11T16:00:14.226Z,3.70
2019-02-11T16:02:42.486Z,3.60
2019-02-11T16:05:15.838Z,3.50
2019-02-11T16:07:40.753Z,3.40
2019-02-11T16:10:12.012Z,3.40
2019-02-11T16:12:40.283Z,3.30
2019-02-11T16:15:10.531Z,3.20
2019-02-11T16:17:38.811Z,3.10
2019-02-11T16:20:14.206Z,3.00
2019-02-11T16:22:42.353Z,2.90
2019-02-11T16:25:12.309Z,2.80
2019-02-11T16:27:40.582Z,2.80
2019-02-11T16:30:11.609Z,2.70
2019-02-11T16:32:39.945Z,2.70
2019-02-11T16:35:09.951Z,2.70
2019-02-11T16:37:38.260Z,2.80
2019-02-11T16:40:12.205Z,2.80
2019-02-11T16:42:40.499Z,2.90
2019-02-11T16:45:10.293Z,3.00
2019-02-11T16:47:38.573Z,3.00
2019-02-11T16:50:09.459Z,2.90
2019-02-11T16:52:37.759Z,2.90
2019-02-11T16:55:08.566Z,2.90
2019-02-11T16:57:36.925Z,2.80
2019-02-11T17:00:08.606Z,2.70
2019-02-11T17:02:37.027Z,2.70
2019-02-11T17:05:08.385Z,2.60
2019-02-11T17:07:41.892Z,2.60
2019-02-11T17:10:09.382Z,2.50
2019-02-11T17:12:37.725Z,2.40
2019-02-11T17:15:11.241Z,2.30
2019-02-11T17:17:39.597Z,2.30
2019-02-11T17:20:09.996Z,2.20
2019-02-11T17:22:38.296Z,2.20
2019-02-11T17:25:08.585Z,2.20
2019-02-11T17:27:36.945Z,2.30
2019-02-11T17:30:10.722Z,2.30
2019-02-11T17:32:39.007Z,2.30
2019-02-11T17:35:09.410Z,2.50
2019-02-11T17:37:37.706Z,2.50
2019-02-11T17:40:11.918Z,2.60
2019-02-11T17:42:40.329Z,2.60
2019-02-11T17:45:14.215Z,2.70
2019-02-11T17:47:42.517Z,2.80
2019-02-11T17:50:11.505Z,2.80
2019-02-11T17:52:39.825Z,2.80
2019-02-11T17:55:10.556Z,2.80
2019-02-11T17:57:38.820Z,2.80
2019-02-11T18:00:12.396Z,2.80
2019-02-11T18:02:40.696Z,2.70
2019-02-11T18:05:09.025Z,2.70
2019-02-11T18:07:37.279Z,2.70
2019-02-11T18:10:06.274Z,2.60
2019-02-11T18:12:34.572Z,2.60
2019-02-11T18:15:03.447Z,2.70
2019-02-11T18:17:31.717Z,2.70
2019-02-11T18:19:59.994Z,2.60
2019-02-11T18:22:28.257Z,2.70
2019-02-11T18:24:56.541Z,2.60
2019-02-11T18:27:24.801Z,2.60
2019-02-11T18:29:53.125Z,2.60
2019-02-11T18:32:21.461Z,2.60
2019-02-11T18:34:49.824Z,2.60
2019-02-11T18:37:18.099Z,2.70
2019-02-11T18:39:46.385Z,2.80
2019-02-11T18:42:14.645Z,2.90
2019-02-11T18:44:43.002Z,2.90
2019-02-11T18:47:11.266Z,2.90
2019-02-11T18:49:39.597Z,2.90
2019-02-11T18:52:07.940Z,3.00
2019-02-11T18:54:36.244Z,3.10
2019-02-11T18:57:06.260Z,3.10
2019-02-11T18:59:34.724Z,3.00
2019-02-11T19:02:02.976Z,2.90
2019-02-11T19:04:31.248Z,2.80
2019-02-11T19:06:59.554Z,2.80
2019-02-11T19:09:27.832Z,2.70
2019-02-11T19:11:56.188Z,2.70
2019-02-11T19:14:24.451Z,2.70
2019-02-11T19:16:52.741Z,2.60
2019-02-11T19:19:21.012Z,2.50
2019-02-11T19:21:49.294Z,2.50
2019-02-11T19:24:17.547Z,2.40
2019-02-11T19:26:45.900Z,2.30
2019-02-11T19:29:14.214Z,2.20
2019-02-11T19:31:42.501Z,2.20
2019-02-11T19:34:10.845Z,2.10
2019-02-11T19:36:39.132Z,2.10
2019-02-11T19:39:08.743Z,2.10
2019-02-11T19:41:37.035Z,2.10
2019-02-11T19:44:05.307Z,2.10
2019-02-11T19:46:33.664Z,2.10
2019-02-11T19:49:01.928Z,2.10
2019-02-11T19:51:30.222Z,2.10
2019-02-11T19:53:58.495Z,2.20
2019-02-11T19:56:26.766Z,2.20
2019-02-11T19:58:55.065Z,2.20
2019-02-11T20:01:23.346Z,2.30
2019-02-11T20:03:51.647Z,2.40
2019-02-11T20:06:19.959Z,2.40
2019-02-11T20:08:48.257Z,2.40
2019-02-11T20:11:16.571Z,2.50
2019-02-11T20:13:44.932Z,2.50
2019-02-11T20:16:13.193Z,2.50
2019-02-11T20:18:41.539Z,2.50
2019-02-11T20:21:09.807Z,2.50
2019-02-11T20:23:38.095Z,2.50
2019-02-11T20:26:06.361Z,2.50
2019-02-11T20:28:34.660Z,2.50
2019-02-11T20:31:02.922Z,2.50
2019-02-11T20:33:31.221Z,2.50
2019-02-11T20:35:59.486Z,2.40
2019-02-11T20:38:27.777Z,2.40
2019-02-11T20:40:56.045Z,2.40
2019-02-11T20:43:24.400Z,2.40
2019-02-11T20:45:52.651Z,2.30
2019-02-11T20:48:20.916Z,2.30
2019-02-11T20:50:49.285Z,2.20
2019-02-11T20:53:17.638Z,2.20
2019-02-11T20:55:46.765Z,2.20
2019-02-11T20:58:15.034Z,2.10
2019-02-11T21:00:43.406Z,2.10
2019-02-11T21:03:11.677Z,2.10
2019-02-11T21:05:40.051Z,2.10
2019-02-11T21:08:08.335Z,2.10
2019-02-11T21:10:36.630Z,2.10
2019-02-11T21:13:04.893Z,2.10
2019-02-11T21:15:33.245Z,2.10
2019-02-11T21:18:01.528Z,2.10
2019-02-11T21:20:38.951Z,2.10
2019-02-11T21:23:08.993Z,2.10
2019-02-11T21:25:37.282Z,2.10
2019-02-11T21:28:05.552Z,2.10
2019-02-11T21:30:33.853Z,2.00
2019-02-11T21:33:02.105Z,2.00
2019-02-11T21:35:30.395Z,2.00
2019-02-11T21:37:58.697Z,2.00
2019-02-11T21:40:27.017Z,2.00
2019-02-11T21:42:55.327Z,2.00
2019-02-11T21:45:23.625Z,1.90
2019-02-11T21:47:51.882Z,1.90
2019-02-11T21:50:26.676Z,1.90
2019-02-11T21:52:51.182Z,1.90
2019-02-11T21:55:20.670Z,1.90
2019-02-11T21:57:48.963Z,1.90
2019-02-11T22:00:23.323Z,1.90
2019-02-11T22:02:51.922Z,2.00
2019-02-11T22:05:20.199Z,2.00
2019-02-11T22:07:49.012Z,2.00
2019-02-11T22:10:22.710Z,2.00
2019-02-11T22:12:51.032Z,2.00
2019-02-11T22:15:19.286Z,2.00
2019-02-11T22:17:48.146Z,2.00
2019-02-11T22:20:20.325Z,2.00
2019-02-11T22:22:48.721Z,2.00
2019-02-11T22:25:17.080Z,2.00
2019-02-11T22:27:45.381Z,2.10
2019-02-11T22:30:16.348Z,2.00
2019-02-11T22:32:44.634Z,2.00
2019-02-11T22:35:12.922Z,2.00
2019-02-11T22:37:41.290Z,2.00
2019-02-11T22:40:14.188Z,2.00
2019-02-11T22:42:42.657Z,2.00
2019-02-11T22:45:13.743Z,2.00
2019-02-11T22:47:42.020Z,2.00
2019-02-11T22:50:12.132Z,2.00
2019-02-11T22:52:40.441Z,2.00
2019-02-11T22:55:13.048Z,2.00
2019-02-11T22:57:41.397Z,2.00
2019-02-11T23:00:15.789Z,2.10
2019-02-11T23:02:44.056Z,2.10
2019-02-11T23:05:12.362Z,3.00
2019-02-11T23:07:40.615Z,2.10
2019-02-11T23:10:08.901Z,2.10
2019-02-11T23:12:37.215Z,2.10
2019-02-11T23:15:08.363Z,2.10
2019-02-11T23:17:36.639Z,2.10
2019-02-11T23:20:06.565Z,2.10
2019-02-11T23:22:34.815Z,2.10
2019-02-11T23:25:03.091Z,2.10
2019-02-11T23:27:31.348Z,2.10
2019-02-11T23:29:59.631Z,2.10
2019-02-11T23:32:27.952Z,2.10
2019-02-11T23:34:56.237Z,2.10
2019-02-11T23:37:24.491Z,2.10
2019-02-11T23:39:52.743Z,-0.10
2019-02-11T23:42:21.057Z,2.00
2019-02-11T23:44:49.317Z,2.10
2019-02-11T23:47:17.692Z,2.00
2019-02-11T23:49:45.948Z,2.00
2019-02-11T23:52:14.232Z,2.10
2019-02-11T23:54:42.490Z,2.10
2019-02-11T23:57:10.777Z,2.10
2019-02-11T23:59:39.031Z,2.10
